Time;durP1;ratioP1;P1;durP2;ratioP2;P2;SDS_P1;SDS_P2;PMS_P1;PMS_P2;Temp;Humidity;BMP_temperature;BMP_pressure;BME280_temperature;BME280_humidity;BME280_pressure;Samples;Min_cycle;Max_cycle;Signal;HPM_P1;HPM_P2
2022/04/09 00:00:56;;;;;;;;;;;5.50;99.90;;;;;;5094626;28;20418;-69
2022/04/09 00:03:21;;;;;;;;;;;5.50;99.90;;;;;;5093118;28;19916;-71
2022/04/09 00:05:47;;;;;;;;;;;5.50;99.90;;;;;;5093032;28;19988;-69
2022/04/09 00:08:13;;;;;;;;;;;5.60;99.90;;;;;;5092963;28;19916;-69
2022/04/09 00:10:38;;;;;;;;;;;5.50;99.90;;;;;;5094095;28;19920;-69
2022/04/09 00:13:04;;;;;;;;;;;5.60;99.90;;;;;;5094512;28;20404;-69
2022/04/09 00:15:30;;;;;;;;;;;5.50;99.90;;;;;;5094444;28;19985;-69
2022/04/09 00:17:55;;;;;;;;;;;5.50;99.90;;;;;;5094317;28;19931;-71
2022/04/09 00:20:20;;;;;;;;;;;5.50;99.90;;;;;;5092732;28;19916;-69
2022/04/09 00:22:46;;;;;;;;;;;5.50;99.90;;;;;;5093967;28;20337;-69
2022/04/09 00:25:13;;;;;;;;;;;5.50;99.90;;;;;;5094160;28;20010;-69
2022/04/09 00:27:38;;;;;;;;;;;5.50;99.90;;;;;;5094302;28;20007;-69
2022/04/09 00:30:04;;;;;;;;;;;5.60;99.90;;;;;;5093839;28;20519;-69
2022/04/09 00:32:30;;;;;;;;;;;5.60;99.90;;;;;;5093984;28;20007;-70
2022/04/09 00:34:55;;;;;;;;;;;5.50;99.90;;;;;;5093980;28;20018;-71
2022/04/09 00:37:21;;;;;;;;;;;5.50;99.90;;;;;;5092545;28;19920;-69
2022/04/09 00:39:46;;;;;;;;;;;5.50;99.90;;;;;;5093473;28;19919;-69
2022/04/09 00:42:13;;;;;;;;;;;5.50;99.90;;;;;;5093712;28;19959;-71
2022/04/09 00:44:38;;;;;;;;;;;5.50;99.90;;;;;;5092765;28;19946;-69
2022/04/09 00:47:04;;;;;;;;;;;5.40;99.90;;;;;;5093584;28;19915;-71
2022/04/09 00:49:30;;;;;;;;;;;5.50;99.90;;;;;;5092145;28;19920;-69
2022/04/09 00:51:56;;;;;;;;;;;5.50;99.90;;;;;;5092106;28;19923;-70
2022/04/09 00:54:22;;;;;;;;;;;5.50;99.90;;;;;;5093568;28;19915;-71
2022/04/09 00:56:48;;;;;;;;;;;5.40;99.90;;;;;;5093565;28;19915;-69
2022/04/09 00:59:15;;;;;;;;;;;5.50;99.90;;;;;;5092956;28;19924;-70
2022/04/09 01:01:41;;;;;;;;;;;5.40;99.90;;;;;;5093393;28;19916;-69
2022/04/09 01:04:10;;;;;;;;;;;5.40;99.90;;;;;;5092167;28;20010;-71
2022/04/09 01:06:36;;;;;;;;;;;5.40;99.90;;;;;;5093377;28;20284;-68
2022/04/09 01:09:03;;;;;;;;;;;5.30;99.90;;;;;;5093034;28;19915;-68
2022/04/09 01:11:29;;;;;;;;;;;5.30;99.90;;;;;;5093370;28;19972;-70
2022/04/09 01:13:54;;;;;;;;;;;5.30;99.90;;;;;;5093205;28;19916;-69
2022/04/09 01:16:20;;;;;;;;;;;5.40;99.90;;;;;;5091874;28;19916;-69
2022/04/09 01:18:45;;;;;;;;;;;5.40;99.90;;;;;;5092721;28;19924;-69
2022/04/09 01:21:11;;;;;;;;;;;5.40;99.90;;;;;;5092962;28;19916;-69
2022/04/09 01:23:36;;;;;;;;;;;5.40;99.90;;;;;;5092664;28;19916;-69
2022/04/09 01:26:03;;;;;;;;;;;5.40;99.90;;;;;;5092981;28;20354;-69
2022/04/09 01:28:29;;;;;;;;;;;5.30;99.90;;;;;;5092764;28;19920;-70
2022/04/09 01:30:54;;;;;;;;;;;5.30;99.90;;;;;;5092901;28;19942;-69
2022/04/09 01:33:20;;;;;;;;;;;5.20;99.90;;;;;;5092783;28;19961;-69
2022/04/09 01:35:46;;;;;;;;;;;5.20;99.90;;;;;;5092793;28;19966;-69
2022/04/09 01:38:12;;;;;;;;;;;5.20;99.90;;;;;;5074354;28;19963;-69
2022/04/09 01:40:38;;;;;;;;;;;5.30;99.90;;;;;;5092644;28;19951;-69
2022/04/09 01:43:04;;;;;;;;;;;5.30;99.90;;;;;;5092535;28;19916;-69
2022/04/09 01:45:29;;;;;;;;;;;5.30;99.90;;;;;;5092518;28;19923;-71
2022/04/09 01:47:55;;;;;;;;;;;5.30;99.90;;;;;;5092570;28;19920;-69
2022/04/09 01:50:21;;;;;;;;;;;5.40;99.90;;;;;;5092174;28;19923;-69
2022/04/09 01:52:47;;;;;;;;;;;5.40;99.90;;;;;;5092229;28;19916;-69
2022/04/09 01:55:13;;;;;;;;;;;5.30;99.90;;;;;;5074108;28;19916;-69
2022/04/09 01:57:38;;;;;;;;;;;5.30;99.90;;;;;;5090959;28;19931;-70
2022/04/09 02:00:06;;;;;;;;;;;5.40;99.90;;;;;;5091886;28;19916;-71
2022/04/09 02:02:32;;;;;;;;;;;5.40;99.90;;;;;;5073914;28;19922;-70
2022/04/09 02:04:57;;;;;;;;;;;5.40;99.90;;;;;;5092153;28;19916;-69
2022/04/09 02:07:23;;;;;;;;;;;5.40;99.90;;;;;;5092073;28;19935;-69
2022/04/09 02:09:48;;;;;;;;;;;5.30;99.90;;;;;;5090640;28;19920;-70
2022/04/09 02:12:14;;;;;;;;;;;5.40;99.90;;;;;;5089931;28;19915;-71
2022/04/09 02:14:39;;;;;;;;;;;5.30;99.90;;;;;;5092104;28;19916;-69
2022/04/09 02:17:05;;;;;;;;;;;5.40;99.90;;;;;;5091871;28;19966;-69
2022/04/09 02:19:30;;;;;;;;;;;5.30;99.90;;;;;;5090305;28;20391;-70
2022/04/09 02:21:56;;;;;;;;;;;5.30;99.90;;;;;;5091748;28;19923;-71
2022/04/09 02:24:22;;;;;;;;;;;5.30;99.90;;;;;;5090644;28;20343;-69
2022/04/09 02:26:47;;;;;;;;;;;5.30;99.90;;;;;;5091969;28;19916;-69
2022/04/09 02:29:12;;;;;;;;;;;5.30;99.90;;;;;;5090586;28;20402;-70
2022/04/09 02:31:38;;;;;;;;;;;5.30;99.90;;;;;;5091766;28;19920;-69
2022/04/09 02:34:04;;;;;;;;;;;5.20;99.90;;;;;;5091798;28;20019;-69
2022/04/09 02:36:31;;;;;;;;;;;5.20;99.90;;;;;;5090435;28;19922;-69
2022/04/09 02:38:57;;;;;;;;;;;5.20;99.90;;;;;;5091299;28;20521;-69
2022/04/09 02:41:23;;;;;;;;;;;5.10;99.90;;;;;;5090379;28;20026;-70
2022/04/09 02:43:48;;;;;;;;;;;5.10;99.90;;;;;;5090441;28;19920;-69
2022/04/09 02:46:15;;;;;;;;;;;5.10;99.90;;;;;;5091552;28;20008;-69
2022/04/09 02:48:41;;;;;;;;;;;5.10;99.90;;;;;;5091296;28;19916;-69
2022/04/09 02:51:06;;;;;;;;;;;5.10;99.90;;;;;;5089958;28;19943;-68
2022/04/09 02:53:32;;;;;;;;;;;5.00;99.90;;;;;;5091666;28;20379;-69
2022/04/09 02:55:57;;;;;;;;;;;5.00;99.90;;;;;;5090100;28;19923;-70
2022/04/09 02:58:23;;;;;;;;;;;5.00;99.90;;;;;;5091416;28;19971;-69
2022/04/09 03:00:48;;;;;;;;;;;5.00;99.90;;;;;;5089947;28;19981;-69
2022/04/09 03:03:14;;;;;;;;;;;5.00;99.90;;;;;;5091166;28;19916;-69
2022/04/09 03:05:39;;;;;;;;;;;5.00;99.90;;;;;;5091233;28;19955;-71
2022/04/09 03:08:05;;;;;;;;;;;5.00;99.90;;;;;;5091357;28;20336;-69
2022/04/09 03:10:30;;;;;;;;;;;4.90;99.90;;;;;;5091128;28;19916;-69
2022/04/09 03:12:56;;;;;;;;;;;4.90;99.90;;;;;;5091383;28;20003;-70
2022/04/09 03:15:22;;;;;;;;;;;5.00;99.90;;;;;;5090065;28;19985;-69
2022/04/09 03:17:47;;;;;;;;;;;5.00;99.90;;;;;;5091198;28;19923;-69
2022/04/09 03:20:12;;;;;;;;;;;4.90;99.90;;;;;;5090829;28;19916;-69
2022/04/09 03:22:43;;;;;;;;;;;4.90;99.90;;;;;;5092226;28;20311;-69
2022/04/09 03:25:08;;;;;;;;;;;4.90;99.90;;;;;;5093993;28;19981;-69
2022/04/09 03:27:37;;;;;;;;;;;5.00;99.90;;;;;;5095204;28;20510;-70
2022/04/09 03:30:02;;;;;;;;;;;4.90;99.90;;;;;;5095005;28;19951;-69
2022/04/09 03:32:28;;;;;;;;;;;4.90;99.90;;;;;;5095109;28;20016;-70
2022/04/09 03:34:53;;;;;;;;;;;4.90;99.90;;;;;;5093733;28;20292;-70
2022/04/09 03:37:19;;;;;;;;;;;4.90;99.90;;;;;;5095177;28;19916;-69
2022/04/09 03:39:44;;;;;;;;;;;4.90;99.90;;;;;;5094795;28;19920;-69
2022/04/09 03:42:10;;;;;;;;;;;4.90;99.90;;;;;;5093584;28;19959;-71
2022/04/09 03:44:35;;;;;;;;;;;4.90;99.90;;;;;;5093660;28;19915;-69
2022/04/09 03:47:02;;;;;;;;;;;4.90;99.90;;;;;;5094746;28;19916;-70
2022/04/09 03:49:28;;;;;;;;;;;4.90;99.90;;;;;;5093231;28;20098;-69
2022/04/09 03:51:54;;;;;;;;;;;5.00;99.90;;;;;;5094918;28;20358;-69
2022/04/09 03:54:19;;;;;;;;;;;4.90;99.90;;;;;;5094946;28;19916;-69
2022/04/09 03:56:45;;;;;;;;;;;4.90;99.90;;;;;;5093580;28;20375;-70
2022/04/09 03:59:11;;;;;;;;;;;4.90;99.90;;;;;;5076036;28;19920;-70
2022/04/09 04:01:36;;;;;;;;;;;5.00;99.90;;;;;;5093296;28;19916;-69
2022/04/09 04:04:02;;;;;;;;;;;4.90;99.90;;;;;;5094561;28;20387;-69
2022/04/09 04:06:27;;;;;;;;;;;4.80;99.90;;;;;;5094817;28;19919;-69
2022/04/09 04:08:55;;;;;;;;;;;4.80;99.90;;;;;;5093994;28;20018;-70
2022/04/09 04:11:21;;;;;;;;;;;4.90;99.90;;;;;;5093384;28;20287;-71
2022/04/09 04:13:48;;;;;;;;;;;4.90;99.90;;;;;;5094349;28;19916;-69
2022/04/09 04:16:13;;;;;;;;;;;4.90;99.90;;;;;;5094397;28;19927;-71
2022/04/09 04:18:39;;;;;;;;;;;4.90;99.90;;;;;;5093818;28;20301;-71
2022/04/09 04:21:04;;;;;;;;;;;4.90;99.90;;;;;;5094279;28;19970;-69
2022/04/09 04:23:30;;;;;;;;;;;4.90;99.90;;;;;;5076122;28;20065;-69
2022/04/09 04:25:55;;;;;;;;;;;5.00;99.90;;;;;;5094248;28;20500;-70
2022/04/09 04:28:21;;;;;;;;;;;5.00;99.90;;;;;;5094112;28;19927;-69
2022/04/09 04:30:46;;;;;;;;;;;5.00;99.90;;;;;;5093489;28;20398;-69
2022/04/09 04:33:12;;;;;;;;;;;4.90;99.90;;;;;;5093018;28;19938;-69
2022/04/09 04:35:37;;;;;;;;;;;4.90;99.90;;;;;;5092412;28;19923;-71
2022/04/09 04:38:03;;;;;;;;;;;5.00;99.90;;;;;;5093978;28;19931;-69
2022/04/09 04:40:28;;;;;;;;;;;4.90;99.90;;;;;;5093717;28;20387;-70
2022/04/09 04:42:54;;;;;;;;;;;4.80;99.90;;;;;;5093267;28;19916;-70
2022/04/09 04:45:19;;;;;;;;;;;4.80;99.90;;;;;;5090335;28;19941;-69
2022/04/09 04:47:45;;;;;;;;;;;4.90;99.90;;;;;;5091162;28;19924;-69
2022/04/09 04:50:11;;;;;;;;;;;4.80;99.90;;;;;;5092920;28;19916;-69
2022/04/09 04:52:37;;;;;;;;;;;4.80;99.90;;;;;;5092419;28;19955;-69
2022/04/09 04:55:03;;;;;;;;;;;4.80;99.90;;;;;;5093555;28;19967;-69
2022/04/09 04:57:30;;;;;;;;;;;4.80;99.90;;;;;;5093340;28;19969;-70
2022/04/09 04:59:56;;;;;;;;;;;4.80;99.90;;;;;;5093178;28;20375;-69
2022/04/09 05:02:21;;;;;;;;;;;4.80;99.90;;;;;;5075331;28;20006;-69
2022/04/09 05:04:47;;;;;;;;;;;4.80;99.90;;;;;;5093399;28;20006;-69
2022/04/09 05:07:13;;;;;;;;;;;4.80;99.90;;;;;;5093257;28;19916;-69
2022/04/09 05:09:38;;;;;;;;;;;4.80;99.90;;;;;;5075163;28;19965;-69
2022/04/09 05:12:04;;;;;;;;;;;4.90;99.90;;;;;;5093310;28;19915;-69
2022/04/09 05:14:30;;;;;;;;;;;4.80;99.90;;;;;;5093417;28;19916;-69
2022/04/09 05:16:57;;;;;;;;;;;4.90;99.90;;;;;;5092011;28;19920;-69
2022/04/09 05:19:22;;;;;;;;;;;4.90;99.90;;;;;;5093084;28;20369;-71
2022/04/09 05:21:48;;;;;;;;;;;4.90;99.90;;;;;;5091919;28;19923;-68
2022/04/09 05:24:13;;;;;;;;;;;4.90;99.90;;;;;;5092983;28;19920;-69
2022/04/09 05:26:39;;;;;;;;;;;4.90;99.90;;;;;;5093112;28;20279;-69
2022/04/09 05:29:05;;;;;;;;;;;4.90;99.90;;;;;;5092772;28;19923;-69
2022/04/09 05:31:30;;;;;;;;;;;4.90;99.90;;;;;;5092781;28;19923;-69
2022/04/09 05:33:56;;;;;;;;;;;5.00;99.90;;;;;;5093114;28;19916;-69
2022/04/09 05:36:22;;;;;;;;;;;5.20;99.90;;;;;;5093016;28;20287;-69
2022/04/09 05:38:47;;;;;;;;;;;5.30;99.90;;;;;;5091077;28;19920;-69
2022/04/09 05:41:13;;;;;;;;;;;5.40;99.90;;;;;;5092655;28;19985;-69
2022/04/09 05:43:39;;;;;;;;;;;5.40;99.90;;;;;;5092749;28;20006;-70
2022/04/09 05:46:05;;;;;;;;;;;5.50;99.90;;;;;;5091329;28;20295;-70
2022/04/09 05:48:31;;;;;;;;;;;5.60;99.90;;;;;;5092578;28;20303;-69
2022/04/09 05:50:56;;;;;;;;;;;5.70;99.90;;;;;;5092521;28;20010;-68
2022/04/09 05:53:22;;;;;;;;;;;5.70;99.90;;;;;;5092427;28;19916;-69
2022/04/09 05:55:47;;;;;;;;;;;5.80;99.90;;;;;;5092561;28;19916;-71
2022/04/09 05:58:13;;;;;;;;;;;5.90;99.90;;;;;;5092385;28;19924;-69
2022/04/09 06:00:38;;;;;;;;;;;6.00;99.90;;;;;;5092071;28;19942;-69
2022/04/09 06:03:04;;;;;;;;;;;6.10;99.90;;;;;;5092505;28;19920;-69
2022/04/09 06:05:29;;;;;;;;;;;6.10;99.90;;;;;;5092276;28;20007;-71
2022/04/09 06:07:55;;;;;;;;;;;6.20;99.90;;;;;;5092311;28;19927;-70
2022/04/09 06:10:20;;;;;;;;;;;6.30;99.90;;;;;;5091987;28;20364;-69
2022/04/09 06:12:46;;;;;;;;;;;6.20;99.90;;;;;;5090758;28;19916;-69
2022/04/09 06:15:11;;;;;;;;;;;6.30;99.90;;;;;;5092111;28;19916;-69
2022/04/09 06:17:39;;;;;;;;;;;6.20;99.90;;;;;;5092150;28;19920;-69
2022/04/09 06:20:05;;;;;;;;;;;6.00;99.90;;;;;;5090844;28;19916;-68
2022/04/09 06:22:30;;;;;;;;;;;6.00;99.90;;;;;;5092423;28;20446;-69
2022/04/09 06:24:55;;;;;;;;;;;6.00;99.90;;;;;;5114555;27;19915;-69
2022/04/09 06:27:21;;;;;;;;;;;6.00;99.90;;;;;;5131087;27;19915;-68
2022/04/09 06:29:46;;;;;;;;;;;6.00;99.90;;;;;;5133356;27;19946;-69
2022/04/09 06:32:12;;;;;;;;;;;6.10;99.90;;;;;;5134010;27;20255;-69
2022/04/09 06:34:37;;;;;;;;;;;6.00;99.90;;;;;;5133890;27;19963;-69
2022/04/09 06:37:03;;;;;;;;;;;6.10;99.90;;;;;;5134721;27;20279;-69
2022/04/09 06:39:29;;;;;;;;;;;6.20;99.90;;;;;;5133910;27;19919;-69
2022/04/09 06:41:54;;;;;;;;;;;6.30;99.90;;;;;;5133952;27;19919;-69
2022/04/09 06:44:20;;;;;;;;;;;6.30;99.90;;;;;;5132610;27;19926;-68
2022/04/09 06:46:46;;;;;;;;;;;6.40;99.90;;;;;;5131071;27;19915;-68
2022/04/09 06:49:12;;;;;;;;;;;6.40;99.90;;;;;;5132249;27;20291;-68
2022/04/09 06:51:39;;;;;;;;;;;6.50;99.90;;;;;;5132327;27;20287;-68
2022/04/09 06:54:04;;;;;;;;;;;6.50;99.90;;;;;;5132520;27;19919;-69
2022/04/09 06:56:30;;;;;;;;;;;6.50;99.90;;;;;;5132287;27;19915;-69
2022/04/09 06:58:55;;;;;;;;;;;6.70;99.90;;;;;;5131443;27;20375;-68
2022/04/09 07:01:21;;;;;;;;;;;6.70;99.90;;;;;;5132368;27;19962;-68
2022/04/09 07:03:46;;;;;;;;;;;6.70;99.90;;;;;;5132417;27;19922;-68
2022/04/09 07:06:13;;;;;;;;;;;6.70;99.90;;;;;;5132242;27;20336;-69
2022/04/09 07:08:39;;;;;;;;;;;6.80;99.90;;;;;;5132075;27;19992;-68
2022/04/09 07:11:05;;;;;;;;;;;6.80;99.90;;;;;;5131691;27;19934;-70
2022/04/09 07:13:31;;;;;;;;;;;6.90;99.90;;;;;;5130802;28;19920;-69
2022/04/09 07:15:57;;;;;;;;;;;6.90;99.90;;;;;;5130955;28;20397;-68
2022/04/09 07:18:22;;;;;;;;;;;7.00;99.90;;;;;;5130810;28;19919;-68
2022/04/09 07:20:48;;;;;;;;;;;7.00;99.90;;;;;;5130584;28;19916;-69
2022/04/09 07:23:13;;;;;;;;;;;7.00;99.90;;;;;;5132133;27;19926;-68
2022/04/09 07:25:39;;;;;;;;;;;6.90;99.90;;;;;;5130782;28;19941;-69
2022/04/09 07:28:04;;;;;;;;;;;6.90;99.90;;;;;;5130659;28;19915;-69
2022/04/09 07:30:30;;;;;;;;;;;6.80;99.90;;;;;;5130375;28;19916;-70
2022/04/09 07:32:57;;;;;;;;;;;6.80;99.90;;;;;;5132068;27;19915;-68
2022/04/09 07:35:22;;;;;;;;;;;6.70;99.90;;;;;;5113621;28;20351;-69
2022/04/09 07:37:54;;;;;;;;;;;6.70;99.90;;;;;;5124733;27;20050;-68
2022/04/09 07:40:20;;;;;;;;;;;6.70;99.90;;;;;;5097873;28;19927;-68
2022/04/09 07:42:46;;;;;;;;;;;6.80;99.90;;;;;;5100591;28;19946;-68
2022/04/09 07:45:12;;;;;;;;;;;6.80;99.90;;;;;;5099109;28;19916;-69
2022/04/09 07:47:38;;;;;;;;;;;6.90;99.90;;;;;;5099696;28;19916;-68
2022/04/09 07:50:06;;;;;;;;;;;7.00;99.90;;;;;;5100604;28;19920;-68
2022/04/09 07:52:31;;;;;;;;;;;7.00;99.90;;;;;;5081233;28;19915;-69
2022/04/09 07:54:57;;;;;;;;;;;7.10;99.90;;;;;;5110347;28;19930;-69
2022/04/09 07:57:24;;;;;;;;;;;7.00;99.90;;;;;;5112468;28;19916;-68
2022/04/09 07:59:53;;;;;;;;;;;7.00;99.90;;;;;;5112460;28;19959;-69
2022/04/09 08:02:19;;;;;;;;;;;7.10;99.90;;;;;;5112009;28;20375;-69
2022/04/09 08:04:45;;;;;;;;;;;7.10;99.90;;;;;;5112143;28;19969;-69
2022/04/09 08:07:10;;;;;;;;;;;7.20;99.90;;;;;;5110687;28;19958;-70
2022/04/09 08:09:36;;;;;;;;;;;7.10;99.90;;;;;;5110810;28;20002;-68
2022/04/09 08:12:01;;;;;;;;;;;7.20;99.90;;;;;;5112927;28;19999;-68
2022/04/09 08:14:27;;;;;;;;;;;7.20;99.90;;;;;;5114572;27;20280;-68
2022/04/09 08:16:52;;;;;;;;;;;7.20;99.90;;;;;;5114731;28;19916;-68
2022/04/09 08:19:18;;;;;;;;;;;7.30;99.90;;;;;;5114181;28;19923;-68
2022/04/09 08:21:44;;;;;;;;;;;7.30;99.90;;;;;;5114309;28;19959;-71
2022/04/09 08:24:10;;;;;;;;;;;7.40;99.90;;;;;;5114572;28;19923;-71
2022/04/09 08:26:36;;;;;;;;;;;7.40;99.90;;;;;;5107318;28;19916;-71
2022/04/09 08:29:03;;;;;;;;;;;7.40;99.90;;;;;;5108407;27;20439;-71
2022/04/09 08:31:28;;;;;;;;;;;7.40;99.90;;;;;;5125544;27;19919;-72
2022/04/09 08:33:54;;;;;;;;;;;7.50;99.90;;;;;;5134836;27;20036;-72
2022/04/09 08:36:19;;;;;;;;;;;7.40;99.90;;;;;;5133609;27;19923;-72
2022/04/09 08:38:45;;;;;;;;;;;7.50;99.90;;;;;;5133853;27;19923;-72
2022/04/09 08:41:13;;;;;;;;;;;7.50;99.90;;;;;;5134706;27;20291;-72
2022/04/09 08:43:39;;;;;;;;;;;7.60;99.90;;;;;;5134789;27;19923;-71
2022/04/09 08:46:05;;;;;;;;;;;7.70;99.90;;;;;;5133347;27;19919;-72
2022/04/09 08:48:31;;;;;;;;;;;7.70;99.90;;;;;;5134464;27;19915;-72
2022/04/09 08:50:57;;;;;;;;;;;7.70;99.90;;;;;;5134222;27;19919;-72
2022/04/09 08:53:23;;;;;;;;;;;7.70;99.90;;;;;;5134298;27;19915;-72
2022/04/09 08:55:50;;;;;;;;;;;7.80;99.90;;;;;;5133452;27;20386;-72
2022/04/09 08:58:15;;;;;;;;;;;7.90;99.90;;;;;;5133048;27;19931;-72
2022/04/09 09:00:42;;;;;;;;;;;7.90;99.90;;;;;;5134305;27;19915;-72
2022/04/09 09:03:10;;;;;;;;;;;7.80;99.90;;;;;;5132770;27;19998;-73
2022/04/09 09:05:37;;;;;;;;;;;7.80;99.90;;;;;;5134358;27;19942;-72
2022/04/09 09:08:03;;;;;;;;;;;7.80;99.90;;;;;;5134005;27;20340;-71
2022/04/09 09:10:29;;;;;;;;;;;7.90;99.90;;;;;;5132484;27;19965;-72
2022/04/09 09:13:08;;;;;;;;;;;7.90;99.90;;;;;;5133745;27;19953;-72
2022/04/09 09:15:44;;;;;;;;;;;8.00;99.90;;;;;;5134338;27;19915;-72
2022/04/09 09:18:17;;;;;;;;;;;8.10;99.90;;;;;;5133940;27;20344;-72
2022/04/09 09:20:47;;;;;;;;;;;8.20;99.90;;;;;;5133758;27;20002;-71
2022/04/09 09:23:22;;;;;;;;;;;8.20;99.90;;;;;;5134105;27;19938;-71
2022/04/09 09:25:49;;;;;;;;;;;8.20;99.90;;;;;;5129910;27;19962;-71
2022/04/09 09:28:20;;;;;;;;;;;8.20;99.90;;;;;;5113347;28;19920;-71
2022/04/09 09:30:48;;;;;;;;;;;8.20;99.90;;;;;;5113031;27;20368;-71
2022/04/09 09:33:13;;;;;;;;;;;8.30;99.90;;;;;;5112715;28;19969;-71
2022/04/09 09:35:55;;;;;;;;;;;8.30;99.90;;;;;;5108409;28;19919;-73
2022/04/09 09:38:22;;;;;;;;;;;8.30;99.90;;;;;;5100656;28;19950;-73
2022/04/09 09:40:48;;;;;;;;;;;8.30;99.90;;;;;;5112455;28;20336;-70
2022/04/09 09:43:18;;;;;;;;;;;8.30;99.90;;;;;;5111738;28;20355;-71
2022/04/09 09:45:44;;;;;;;;;;;8.30;99.90;;;;;;5113193;28;19923;-71
2022/04/09 09:48:22;;;;;;;;;;;8.30;99.90;;;;;;5112832;28;20002;-73
2022/04/09 09:50:47;;;;;;;;;;;8.40;99.90;;;;;;5112918;28;19915;-69
2022/04/09 10:19:28;;;;;;;30.90;14.98;;;18.30;99.90;;;;;;4649820;27;15752061;-89
2022/04/09 10:21:54;;;;;;;30.58;10.35;;;18.40;96.30;;;;;;5162392;27;20045;-86
2022/04/09 10:24:41;;;;;;;25.75;9.30;;;18.30;89.40;;;;;;5178921;27;20435;-88
2022/04/09 10:27:38;;;;;;;20.48;8.13;;;18.10;77.10;;;;;;5177501;27;20046;-87
2022/04/09 10:30:21;;;;;;;37.83;12.65;;;18.20;78.40;;;;;;5159612;27;20066;-85
2022/04/09 10:32:53;;;;;;;23.05;7.82;;;18.30;73.10;;;;;;5156968;27;20037;-84
2022/04/09 10:35:26;;;;;;;21.92;6.35;;;18.00;66.40;;;;;;5106137;27;20473;-84
2022/04/09 10:38:15;;;;;;;20.00;6.65;;;17.80;66.80;;;;;;4918773;28;20406;-84
2022/04/09 10:40:43;;;;;;;15.35;5.97;;;17.70;67.50;;;;;;5063840;28;20052;-84
2022/04/09 10:43:38;;;;;;;15.65;5.75;;;17.70;67.00;;;;;;5074128;28;20454;-85
2022/04/09 10:46:08;;;;;;;14.10;4.78;;;17.60;67.40;;;;;;5066321;28;20048;-84
2022/04/09 10:48:35;;;;;;;15.30;4.97;;;17.60;66.80;;;;;;5074045;28;20048;-85
2022/04/09 10:51:09;;;;;;;13.82;4.47;;;17.60;67.70;;;;;;5056805;28;20396;-84
2022/04/09 10:53:36;;;;;;;14.82;4.95;;;17.50;67.40;;;;;;5073603;28;20101;-85
2022/04/09 10:56:20;;;;;;;14.27;4.63;;;17.50;67.00;;;;;;5073364;28;20041;-84
2022/04/09 10:59:12;;;;;;;10.75;4.03;;;17.50;66.60;;;;;;5073098;28;20119;-85
2022/04/09 11:01:50;;;;;;;8.20;3.60;;;17.50;67.00;;;;;;5057065;28;20044;-85
2022/04/09 11:04:37;;;;;;;11.05;3.90;;;17.40;66.80;;;;;;5056810;28;20506;-85
2022/04/09 11:07:04;;;;;;;11.43;3.67;;;17.40;67.30;;;;;;5056959;28;20040;-84
2022/04/09 11:09:50;;;;;;;9.02;3.08;;;17.50;67.00;;;;;;5058564;28;20037;-84
2022/04/09 11:12:30;;;;;;;9.18;2.85;;;17.40;66.50;;;;;;5060752;28;20377;-84
2022/04/09 11:15:08;;;;;;;10.02;3.10;;;17.40;66.90;;;;;;5061221;28;20085;-83
2022/04/09 11:17:35;;;;;;;8.02;2.90;;;17.40;66.40;;;;;;5080419;28;20066;-83
2022/04/09 11:20:11;;;;;;;6.15;2.55;;;17.40;66.60;;;;;;5063832;28;20092;-84
2022/04/09 11:22:41;;;;;;;6.82;2.90;;;17.40;66.90;;;;;;5081390;28;20096;-83
2022/04/09 11:25:16;;;;;;;5.88;2.80;;;17.40;66.30;;;;;;5082763;28;20044;-83
2022/04/09 11:28:16;;;;;;;;;;;;;;;;;;;;;
2022/04/09 11:36:22;;;;;;;5.20;1.48;;;18.50;61.90;;;;;;5109802;27;20313;-54
2022/04/09 11:38:48;;;;;;;4.03;1.50;;;18.90;64.00;;;;;;5109235;28;20464;-55
2022/04/09 11:41:20;;;;;;;5.43;2.08;;;19.10;62.00;;;;;;4972936;28;20163;-53
2022/04/09 11:43:47;;;;;;;5.95;1.67;;;19.20;60.80;;;;;;4980837;28;20045;-54
2022/04/09 11:46:12;;;;;;;8.48;1.55;;;19.40;60.30;;;;;;5029059;28;20450;-52
2022/04/09 11:48:38;;;;;;;4.93;1.88;;;19.50;60.80;;;;;;5028311;28;20096;-54
2022/04/09 11:51:03;;;;;;;5.47;1.80;;;19.60;60.30;;;;;;5027906;28;20045;-52
2022/04/09 12:00:38;;;;;;;5.05;1.50;;;14.00;93.10;;;;;;5127365;27;1875155;-75
2022/04/09 12:03:05;;;;;;;7.22;1.52;;;12.50;99.90;;;;;;5128965;27;20047;-76
2022/04/09 12:05:41;;;;;;;3.90;1.35;;;11.60;99.90;;;;;;5113610;27;20595;-76
2022/04/09 12:08:14;;;;;;;1.98;1.20;;;10.80;99.90;;;;;;5130580;27;20038;-76
2022/04/09 12:11:01;;;;;;;7.45;1.77;;;10.10;99.90;;;;;;5113123;27;20506;-77
2022/04/09 12:13:33;;;;;;;5.95;2.25;;;9.70;99.90;;;;;;4999985;28;20059;-77
2022/04/09 12:16:12;;;;;;;5.85;2.00;;;9.30;99.90;;;;;;5100442;28;20031;-76
2022/04/09 12:18:38;;;;;;;6.90;1.75;;;9.00;99.90;;;;;;5127296;28;20045;-77
2022/04/09 12:21:37;;;;;;;6.47;1.92;;;8.80;99.90;;;;;;5126971;28;20126;-77
2022/04/09 12:24:03;;;;;;;2.90;1.67;;;8.70;99.90;;;;;;5068993;28;20454;-76
2022/04/09 12:26:31;;;;;;;7.80;1.67;;;8.60;99.90;;;;;;5048537;28;20474;-75
2022/04/09 12:29:12;;;;;;;3.78;1.73;;;8.60;99.90;;;;;;5028212;28;20068;-75
2022/04/09 12:31:42;;;;;;;7.13;1.75;;;8.50;99.90;;;;;;5058737;28;20044;-76
2022/04/09 12:34:08;;;;;;;2.80;1.40;;;8.50;99.90;;;;;;5085148;28;20051;-76
2022/04/09 12:36:36;;;;;;;5.03;1.50;;;8.50;99.90;;;;;;5085236;28;20110;-76
2022/04/09 12:39:25;;;;;;;3.13;1.40;;;8.50;99.90;;;;;;5057911;28;20502;-77
2022/04/09 12:41:51;;;;;;;4.88;1.50;;;8.50;99.90;;;;;;5028045;28;20057;-77
2022/04/09 12:44:27;;;;;;;3.97;1.60;;;8.50;99.90;;;;;;5028353;28;20048;-76
2022/04/09 12:46:56;;;;;;;5.90;1.83;;;8.60;99.90;;;;;;5044841;28;20056;-76
2022/04/09 12:49:34;;;;;;;2.22;1.50;;;8.70;99.90;;;;;;5044555;28;20572;-78
2022/04/09 12:52:01;;;;;;;8.40;2.20;;;8.60;99.90;;;;;;5011848;28;20110;-78
2022/04/09 12:54:31;;;;;;;2.20;1.73;;;8.50;99.90;;;;;;5028130;28;20045;-76
2022/04/09 12:57:07;;;;;;;3.55;1.30;;;8.40;99.90;;;;;;5047029;28;20638;-78
2022/04/09 12:59:34;;;;;;;2.22;1.30;;;8.10;99.90;;;;;;5093716;28;20051;-78
2022/04/09 13:01:59;;;;;;;6.07;2.17;;;7.80;99.90;;;;;;5113079;28;20042;-78
2022/04/09 13:04:25;;;;;;;6.10;1.48;;;7.80;99.90;;;;;;5131560;28;20039;-78
2022/04/09 13:06:50;;;;;;;4.10;1.70;;;7.70;99.90;;;;;;5133376;28;20406;-78
2022/04/09 13:09:16;;;;;;;5.10;1.38;;;7.70;99.90;;;;;;5113764;28;20460;-77
2022/04/09 13:11:42;;;;;;;4.95;1.90;;;7.70;99.90;;;;;;5116408;28;20395;-79
2022/04/09 13:14:07;;;;;;;4.28;1.50;;;7.70;99.90;;;;;;5114018;28;20040;-79
2022/04/09 13:16:33;;;;;;;5.00;1.88;;;7.70;99.90;;;;;;5105952;28;20492;-77
2022/04/09 13:18:58;;;;;;;4.60;1.42;;;7.80;99.90;;;;;;5068450;28;20048;-78
2022/04/09 13:21:25;;;;;;;4.18;1.73;;;7.80;99.90;;;;;;5069671;28;20076;-80
2022/04/09 13:23:50;;;;;;;6.68;1.65;;;7.80;99.90;;;;;;5067979;28;20047;-78
2022/04/09 13:26:16;;;;;;;7.10;1.80;;;7.70;99.90;;;;;;5095836;28;20032;-78
2022/04/09 13:28:41;;;;;;;4.13;1.52;;;7.90;99.90;;;;;;5078913;28;20100;-78
2022/04/09 13:31:07;;;;;;;5.20;2.10;;;8.00;99.90;;;;;;5095790;28;20128;-78
2022/04/09 13:33:33;;;;;;;3.22;1.55;;;8.00;99.90;;;;;;5096071;28;20050;-78
2022/04/09 13:35:58;;;;;;;5.53;1.90;;;8.10;99.90;;;;;;5095975;28;20043;-79
2022/04/09 13:38:24;;;;;;;5.65;2.00;;;8.10;99.90;;;;;;5078729;28;20043;-79
2022/04/09 13:40:49;;;;;;;4.43;1.65;;;8.20;99.90;;;;;;5113694;28;20908;-79
2022/04/09 13:43:15;;;;;;;3.58;1.50;;;8.20;99.90;;;;;;5095474;28;20552;-79
2022/04/09 13:45:42;;;;;;;2.90;1.40;;;8.40;99.90;;;;;;5075408;28;20032;-79
2022/04/09 13:48:08;;;;;;;2.53;1.67;;;8.50;99.90;;;;;;5069886;28;20032;-79
2022/04/09 13:50:34;;;;;;;4.05;1.98;;;8.30;99.90;;;;;;5066758;28;20480;-78
2022/04/09 13:53:00;;;;;;;6.50;1.45;;;8.30;99.90;;;;;;5067357;28;20050;-78
2022/04/09 13:55:26;;;;;;;3.05;1.63;;;8.40;99.90;;;;;;5101275;28;20031;-78
2022/04/09 13:57:51;;;;;;;6.13;1.50;;;8.40;99.90;;;;;;5103453;28;20043;-78
2022/04/09 14:00:18;;;;;;;3.72;2.00;;;8.40;99.90;;;;;;5101066;28;20032;-79
2022/04/09 14:02:43;;;;;;;5.80;1.65;;;8.40;99.90;;;;;;5089060;28;20399;-78
2022/04/09 14:05:09;;;;;;;5.55;1.63;;;8.20;99.90;;;;;;5089149;28;20040;-78
2022/04/09 14:07:35;;;;;;;5.75;1.77;;;8.20;99.90;;;;;;5103736;28;20047;-78
2022/04/09 14:10:01;;;;;;;7.05;1.75;;;8.30;99.90;;;;;;5084669;28;20123;-78
2022/04/09 14:12:29;;;;;;;4.68;1.67;;;8.20;99.90;;;;;;5072607;28;20127;-75
2022/04/09 14:14:55;;;;;;;5.93;1.40;;;8.20;99.90;;;;;;5076093;28;20053;-78
2022/04/09 14:17:20;;;;;;;4.55;1.60;;;8.10;99.90;;;;;;5094346;28;20134;-79
2022/04/09 14:19:47;;;;;;;6.22;1.60;;;8.10;99.90;;;;;;5077215;28;20392;-79
2022/04/09 14:22:13;;;;;;;3.40;1.30;;;8.10;99.90;;;;;;5093179;28;20123;-79
2022/04/09 14:24:39;;;;;;;2.38;1.35;;;8.00;99.90;;;;;;5094431;28;20122;-79
2022/04/09 14:27:06;;;;;;;2.40;1.13;;;8.10;99.90;;;;;;5094902;28;20028;-79
2022/04/09 14:29:33;;;;;;;5.45;1.40;;;8.10;99.90;;;;;;5076878;28;20035;-81
2022/04/09 14:31:58;;;;;;;4.13;1.42;;;8.10;99.90;;;;;;5094211;28;20043;-78
2022/04/09 14:34:25;;;;;;;3.72;1.33;;;8.10;99.90;;;;;;5094345;28;20039;-82
2022/04/09 14:36:50;;;;;;;4.40;1.40;;;8.10;99.90;;;;;;5094356;28;20055;-77
2022/04/09 14:39:16;;;;;;;5.03;1.50;;;8.10;99.90;;;;;;5076674;28;20097;-77